createdAt,value
2022-11-16T00:00:25.112Z,0
2022-11-16T00:05:28.279Z,0
2022-11-16T00:10:25.105Z,0
2022-11-16T00:15:25.115Z,0
2022-11-16T00:20:25.109Z,0
2022-11-16T00:25:25.115Z,6.6
2022-11-16T00:30:25.130Z,7.3
2022-11-16T00:35:25.116Z,8.6
2022-11-16T00:40:25.105Z,6.1
2022-11-16T00:45:25.116Z,6.1
2022-11-16T00:50:25.105Z,4.6
2022-11-16T00:55:25.104Z,4.6
2022-11-16T01:00:25.116Z,5.3
2022-11-16T01:05:25.112Z,5.3
2022-11-16T01:10:25.095Z,5.3
2022-11-16T01:15:25.133Z,7.5
2022-11-16T01:20:25.103Z,7.4
2022-11-16T01:25:25.112Z,7
2022-11-16T01:30:25.110Z,7
2022-11-16T01:35:25.099Z,6.2
2022-11-16T01:40:25.103Z,5.8
2022-11-16T01:45:25.108Z,4.6
2022-11-16T01:50:25.109Z,4.6
2022-11-16T01:55:25.115Z,5.4
2022-11-16T02:00:25.104Z,6.6
2022-11-16T02:05:25.108Z,5.5
2022-11-16T02:10:25.098Z,5.6
2022-11-16T02:15:25.115Z,0
2022-11-16T02:20:25.103Z,4.2
2022-11-16T02:25:25.103Z,4.3
2022-11-16T02:30:25.106Z,8.5
2022-11-16T02:35:25.113Z,8.6
2022-11-16T02:40:25.119Z,7.1
2022-11-16T02:45:25.106Z,6.4
2022-11-16T02:50:25.105Z,6.5
2022-11-16T02:55:25.112Z,6.2
2022-11-16T03:00:25.102Z,0
2022-11-16T03:05:25.116Z,0
2022-11-16T03:10:25.111Z,4.3
2022-11-16T03:15:25.110Z,5.3
2022-11-16T03:20:25.110Z,4.6
2022-11-16T03:25:25.102Z,4.6
2022-11-16T03:30:25.102Z,5.5
2022-11-16T03:35:25.109Z,6.1
2022-11-16T03:40:25.116Z,7
2022-11-16T03:45:25.106Z,7
2022-11-16T03:50:25.110Z,5.2
2022-11-16T03:55:25.118Z,9
2022-11-16T04:00:25.103Z,8.5
2022-11-16T04:05:25.113Z,5.9
2022-11-16T04:10:25.110Z,6.9
2022-11-16T04:15:25.112Z,6.3
2022-11-16T04:20:25.109Z,5.9
2022-11-16T04:25:25.116Z,6.1
2022-11-16T04:30:25.095Z,6.1
2022-11-16T04:35:25.110Z,7.1
2022-11-16T04:40:25.101Z,7.1
2022-11-16T04:45:25.117Z,7
2022-11-16T04:50:25.104Z,0
2022-11-16T04:55:25.117Z,0
2022-11-16T05:00:25.108Z,4
2022-11-16T05:05:25.113Z,5.1
2022-11-16T05:10:25.107Z,4.3
2022-11-16T05:15:25.117Z,4.1
2022-11-16T05:20:25.144Z,6.4
2022-11-16T05:25:25.130Z,0
2022-11-16T05:30:25.107Z,0
2022-11-16T05:35:25.109Z,0
2022-11-16T05:40:25.108Z,5.3
2022-11-16T05:45:25.105Z,4.2
2022-11-16T05:50:25.108Z,0
2022-11-16T05:55:25.108Z,0
2022-11-16T06:00:25.133Z,0
2022-11-16T06:05:25.113Z,0
2022-11-16T06:10:25.101Z,0
2022-11-16T06:15:25.111Z,7.3
2022-11-16T06:20:25.107Z,7.3
2022-11-16T06:25:25.111Z,5.9
2022-11-16T06:30:25.112Z,7.7
2022-11-16T06:35:25.120Z,6.6
2022-11-16T06:40:25.102Z,6.6
2022-11-16T06:45:25.115Z,0
2022-11-16T06:50:25.495Z,0
2022-11-16T06:55:25.118Z,0
2022-11-16T07:00:25.109Z,0
2022-11-16T07:05:25.118Z,0
2022-11-16T07:10:25.102Z,0
2022-11-16T07:15:25.131Z,0
2022-11-16T07:20:25.125Z,0
2022-11-16T07:25:25.118Z,0
2022-11-16T07:30:25.114Z,0
2022-11-16T07:35:25.124Z,0
2022-11-16T07:40:25.308Z,0
2022-11-16T07:45:25.125Z,6.7
2022-11-16T07:50:25.105Z,7
2022-11-16T07:55:25.117Z,7
2022-11-16T08:00:25.123Z,5.6
2022-11-16T08:05:25.111Z,0
2022-11-16T08:10:25.162Z,7.1
2022-11-16T08:15:25.113Z,7
2022-11-16T08:20:25.113Z,7.6
2022-11-16T08:25:25.123Z,6.5
2022-11-16T08:30:25.105Z,7
2022-11-16T08:35:25.126Z,0
2022-11-16T08:40:25.110Z,0
2022-11-16T08:45:25.116Z,8.6
2022-11-16T08:50:25.145Z,0
2022-11-16T08:55:25.108Z,0
2022-11-16T09:00:25.109Z,0
2022-11-16T09:05:25.115Z,0
2022-11-16T09:10:25.100Z,11
2022-11-16T09:15:25.103Z,9.8
2022-11-16T09:20:25.108Z,12
2022-11-16T09:25:25.140Z,13.4
2022-11-16T09:30:25.104Z,14.2
2022-11-16T09:35:25.110Z,12.3
2022-11-16T09:40:25.099Z,12.4
2022-11-16T09:45:25.109Z,14.5
2022-11-16T09:50:25.099Z,15.9
2022-11-16T09:55:25.109Z,17.2
2022-11-16T10:00:25.240Z,16.3
2022-11-16T10:05:25.120Z,15.7
2022-11-16T10:10:25.108Z,11.6
2022-11-16T10:15:25.110Z,21.9
2022-11-16T10:20:30.381Z,26
2022-11-16T10:25:25.111Z,18.6
2022-11-16T10:30:25.094Z,20.3
2022-11-16T10:35:25.138Z,20.3
2022-11-16T10:40:25.114Z,22.6
2022-11-16T10:45:25.117Z,23.8
2022-11-16T10:50:25.109Z,16.9
2022-11-16T10:55:25.114Z,18.5
2022-11-16T11:00:25.109Z,15.5
2022-11-16T11:05:25.108Z,16.9
2022-11-16T11:10:25.111Z,16.9
2022-11-16T11:15:26.373Z,15.8
2022-11-16T11:20:25.109Z,21.5
2022-11-16T11:25:25.126Z,17.8
2022-11-16T11:30:25.105Z,19.4
2022-11-16T11:35:25.113Z,14.9
2022-11-16T11:40:25.105Z,16.9
2022-11-16T11:45:25.112Z,12.5
2022-11-16T11:50:25.111Z,14.7
2022-11-16T11:55:25.107Z,12.3
2022-11-16T12:00:25.097Z,15.6
2022-11-16T12:05:25.105Z,15
2022-11-16T12:10:25.107Z,23
2022-11-16T12:15:25.108Z,17.3
2022-11-16T12:20:25.101Z,19
2022-11-16T12:25:25.134Z,14.4
2022-11-16T12:30:25.102Z,14.4
2022-11-16T12:35:25.110Z,14.7
2022-11-16T12:40:25.110Z,14.7
2022-11-16T12:45:29.075Z,16.9
2022-11-16T12:50:25.115Z,16.9
2022-11-16T12:55:26.643Z,9.9
2022-11-16T13:00:25.107Z,9.9
2022-11-16T13:05:25.124Z,14.9
2022-11-16T13:10:25.116Z,11.7
2022-11-16T13:15:25.115Z,14.5
2022-11-16T13:20:25.112Z,14.9
2022-11-16T13:25:25.114Z,16.8
2022-11-16T13:30:25.122Z,20.2
2022-11-16T13:35:25.102Z,21.5
2022-11-16T13:40:25.108Z,21.3
2022-11-16T13:45:25.133Z,17.6
2022-11-16T13:50:25.121Z,17.6
2022-11-16T13:55:25.129Z,13.5
2022-11-16T14:00:25.123Z,13.5
2022-11-16T14:05:25.120Z,15.5
2022-11-16T14:10:25.127Z,13.6
2022-11-16T14:15:25.117Z,13.3
2022-11-16T14:20:25.105Z,8.6
2022-11-16T14:25:25.109Z,8.2
2022-11-16T14:30:25.096Z,9.2
2022-11-16T14:35:25.101Z,7.9
2022-11-16T14:40:25.105Z,0
2022-11-16T14:45:25.099Z,0
2022-11-16T14:50:25.102Z,0
2022-11-16T14:55:25.108Z,0
2022-11-16T15:00:25.100Z,7.3
2022-11-16T15:05:25.111Z,7.3
2022-11-16T15:10:25.109Z,12
2022-11-16T15:15:25.104Z,7.7
2022-11-16T15:20:25.098Z,7.1
2022-11-16T15:25:25.103Z,6.6
2022-11-16T15:30:25.096Z,0
2022-11-16T15:35:25.104Z,0
2022-11-16T15:40:25.107Z,0
2022-11-16T15:45:25.105Z,4
2022-11-16T15:50:25.102Z,0
2022-11-16T15:55:25.206Z,0
2022-11-16T16:00:25.099Z,0
2022-11-16T16:05:25.118Z,0
2022-11-16T16:10:25.091Z,0
2022-11-16T16:15:25.120Z,0
2022-11-16T16:20:25.099Z,0
2022-11-16T16:25:25.114Z,0
2022-11-16T16:30:25.107Z,0
2022-11-16T16:35:25.117Z,0
2022-11-16T16:40:25.116Z,0
2022-11-16T16:45:25.101Z,0
2022-11-16T16:50:25.104Z,11.8
2022-11-16T16:55:25.101Z,10.4
2022-11-16T17:00:25.113Z,8.4
2022-11-16T17:05:25.110Z,9
2022-11-16T17:10:25.096Z,9.4
2022-11-16T17:15:25.115Z,8.1
2022-11-16T17:20:25.113Z,8.5
2022-11-16T17:25:25.104Z,9.3
2022-11-16T17:30:25.097Z,7.7
2022-11-16T17:35:25.110Z,7.7
2022-11-16T17:40:25.112Z,10.1
2022-11-16T17:45:25.129Z,8.4
2022-11-16T17:50:25.116Z,7.8
2022-11-16T17:55:25.129Z,7.8
2022-11-16T18:00:25.108Z,8.7
2022-11-16T18:05:25.106Z,6.9
2022-11-16T18:10:25.103Z,0
2022-11-16T18:15:29.097Z,0
2022-11-16T18:20:25.106Z,0
2022-11-16T18:25:25.109Z,0
2022-11-16T18:30:25.102Z,0
2022-11-16T18:35:25.105Z,5.3
2022-11-16T18:40:25.110Z,5.3
2022-11-16T18:45:25.113Z,0
2022-11-16T18:50:26.934Z,0
2022-11-16T18:55:25.105Z,0
2022-11-16T19:00:25.109Z,0
2022-11-16T19:05:25.126Z,5.3
2022-11-16T19:10:25.110Z,5.3
2022-11-16T19:15:25.105Z,0
2022-11-16T19:20:25.110Z,4.6
2022-11-16T19:25:25.113Z,5.7
2022-11-16T19:30:25.095Z,6.7
2022-11-16T19:35:25.117Z,6.2
2022-11-16T19:40:25.415Z,0
2022-11-16T19:45:25.120Z,0
2022-11-16T19:50:25.112Z,5
2022-11-16T19:55:25.109Z,6.6
2022-11-16T20:00:25.112Z,6.2
2022-11-16T20:05:25.103Z,0
2022-11-16T20:10:25.100Z,0
2022-11-16T20:15:25.109Z,0
2022-11-16T20:20:25.096Z,0
2022-11-16T20:25:25.113Z,0
2022-11-16T20:30:25.100Z,0
2022-11-16T20:35:25.110Z,0
2022-11-16T20:40:25.122Z,0
2022-11-16T20:45:25.117Z,0
2022-11-16T20:50:25.101Z,0
2022-11-16T20:55:25.105Z,6.2
2022-11-16T21:00:25.110Z,0
2022-11-16T21:05:25.114Z,0
2022-11-16T21:10:25.097Z,0
2022-11-16T21:15:25.106Z,7.1
2022-11-16T21:20:27.731Z,8.5
2022-11-16T21:25:25.112Z,0
2022-11-16T21:30:25.109Z,0
2022-11-16T21:35:25.111Z,4
2022-11-16T21:40:25.104Z,5.5
2022-11-16T21:45:25.105Z,0
2022-11-16T21:50:31.466Z,0
2022-11-16T21:55:25.111Z,0
2022-11-16T22:00:25.106Z,0
2022-11-16T22:05:25.106Z,0
2022-11-16T22:10:25.112Z,7.6
2022-11-16T22:15:25.110Z,0
2022-11-16T22:20:25.102Z,0
2022-11-16T22:25:25.117Z,5
2022-11-16T22:30:25.104Z,7.1
2022-11-16T22:35:25.095Z,4.1
2022-11-16T22:40:25.098Z,0
2022-11-16T22:45:25.109Z,0
2022-11-16T22:50:25.110Z,6.6
2022-11-16T22:55:25.111Z,7.3
2022-11-16T23:00:25.106Z,7.6
2022-11-16T23:05:25.106Z,7.4
2022-11-16T23:10:25.106Z,5.7
2022-11-16T23:15:25.105Z,6.8
2022-11-16T23:20:25.095Z,0
2022-11-16T23:25:25.109Z,7.4
2022-11-16T23:30:25.101Z,9.1
2022-11-16T23:35:25.128Z,6.3
2022-11-16T23:40:25.116Z,6.3
2022-11-16T23:45:25.116Z,6.9
2022-11-16T23:50:25.121Z,6.4
2022-11-16T23:55:25.112Z,6.3
